createdAt,value
2023-04-13T00:00:23.849Z,10.85
2023-04-13T00:02:55.834Z,10.85
2023-04-13T00:05:25.069Z,10.88
2023-04-13T00:07:54.803Z,10.88
2023-04-13T00:10:22.874Z,10.88
2023-04-13T00:12:52.000Z,10.96
2023-04-13T00:15:20.646Z,10.86
2023-04-13T00:17:48.618Z,10.90
2023-04-13T00:20:16.751Z,10.89
2023-04-13T00:22:45.809Z,10.82
2023-04-13T00:25:16.507Z,10.92
2023-04-13T00:27:44.895Z,10.83
2023-04-13T00:30:15.747Z,10.84
2023-04-13T00:32:45.722Z,10.81
2023-04-13T00:35:18.580Z,10.86
2023-04-13T00:37:47.830Z,10.88
2023-04-13T00:40:17.922Z,10.81
2023-04-13T00:42:46.189Z,10.80
2023-04-13T00:45:14.725Z,10.75
2023-04-13T00:47:46.601Z,10.83
2023-04-13T00:50:15.348Z,10.82
2023-04-13T00:52:43.725Z,10.71
2023-04-13T00:55:11.707Z,10.62
2023-04-13T00:57:42.399Z,10.64
2023-04-13T01:00:11.033Z,10.58
2023-04-13T01:02:42.199Z,10.58
2023-04-13T01:05:12.937Z,10.53
2023-04-13T01:07:56.705Z,10.51
2023-04-13T01:10:30.309Z,10.56
2023-04-13T01:13:10.189Z,10.63
2023-04-13T01:15:41.372Z,10.48
2023-04-13T01:18:12.193Z,10.53
2023-04-13T01:20:44.080Z,10.53
2023-04-13T01:23:25.132Z,10.60
2023-04-13T01:25:58.167Z,10.66
2023-04-13T01:28:28.871Z,10.62
2023-04-13T01:31:00.829Z,10.56
2023-04-13T01:33:30.635Z,10.60
2023-04-13T01:36:01.252Z,10.59
2023-04-13T01:38:29.890Z,10.56
2023-04-13T01:40:58.186Z,10.61
2023-04-13T01:43:29.255Z,10.60
2023-04-13T01:46:04.101Z,10.61
2023-04-13T01:48:37.657Z,10.67
2023-04-13T01:51:09.844Z,10.67
2023-04-13T01:53:43.447Z,10.71
2023-04-13T01:56:12.969Z,10.72
2023-04-13T01:58:44.299Z,10.74
2023-04-13T02:01:12.755Z,10.79
2023-04-13T02:03:43.246Z,10.83
2023-04-13T02:06:11.792Z,10.79
2023-04-13T02:08:40.199Z,10.75
2023-04-13T02:11:08.715Z,10.75
2023-04-13T02:13:36.829Z,10.70
2023-04-13T02:16:07.841Z,10.75
2023-04-13T02:18:35.553Z,10.75
2023-04-13T02:21:08.956Z,10.76
2023-04-13T02:23:37.287Z,10.77
2023-04-13T02:26:05.644Z,10.75
2023-04-13T02:28:33.870Z,10.73
2023-04-13T02:31:03.197Z,10.75
2023-04-13T02:33:32.771Z,10.76
2023-04-13T02:36:02.735Z,10.73
2023-04-13T02:38:30.863Z,10.76
2023-04-13T02:41:00.544Z,10.73
2023-04-13T02:43:29.631Z,10.74
2023-04-13T02:45:58.276Z,10.73
2023-04-13T02:48:26.577Z,10.70
2023-04-13T02:50:56.738Z,10.68
2023-04-13T02:53:25.200Z,10.67
2023-04-13T02:55:53.657Z,10.65
2023-04-13T02:58:24.299Z,10.65
2023-04-13T03:00:52.149Z,10.67
2023-04-13T03:03:20.402Z,10.61
2023-04-13T03:05:51.136Z,10.61
2023-04-13T03:08:20.254Z,10.57
2023-04-13T03:10:48.022Z,10.55
2023-04-13T03:13:16.538Z,10.55
2023-04-13T03:15:44.204Z,10.55
2023-04-13T03:18:11.921Z,10.50
2023-04-13T03:20:40.341Z,10.50
2023-04-13T03:23:08.005Z,10.42
2023-04-13T03:25:37.066Z,10.48
2023-04-13T03:28:05.266Z,10.48
2023-04-13T03:30:33.039Z,10.48
2023-04-13T03:33:00.824Z,10.49
2023-04-13T03:35:29.122Z,10.47
2023-04-13T03:37:57.009Z,10.48
2023-04-13T03:40:24.776Z,10.48
2023-04-13T03:42:54.395Z,10.49
2023-04-13T03:45:21.904Z,10.50
2023-04-13T03:47:49.716Z,10.52
2023-04-13T03:50:18.113Z,10.51
2023-04-13T03:52:45.792Z,10.50
2023-04-13T03:55:13.633Z,10.44
2023-04-13T03:57:41.981Z,10.46
2023-04-13T04:00:14.278Z,10.48
2023-04-13T04:02:42.779Z,10.48
2023-04-13T04:05:11.462Z,10.50
2023-04-13T04:07:39.179Z,10.49
2023-04-13T04:10:08.809Z,10.47
2023-04-13T04:12:36.338Z,10.54
2023-04-13T04:15:05.358Z,10.55
2023-04-13T04:17:34.922Z,10.55
2023-04-13T04:20:03.716Z,10.52
2023-04-13T04:22:34.754Z,10.55
2023-04-13T04:25:02.984Z,10.55
2023-04-13T04:27:31.499Z,10.55
2023-04-13T04:30:00.918Z,10.58
2023-04-13T04:32:29.434Z,10.57
2023-04-13T04:34:58.538Z,10.60
2023-04-13T04:37:26.313Z,10.56
2023-04-13T04:39:55.445Z,10.61
2023-04-13T04:42:23.100Z,10.58
2023-04-13T04:44:50.760Z,10.59
2023-04-13T04:47:20.080Z,10.62
2023-04-13T04:49:47.821Z,10.61
2023-04-13T04:52:16.863Z,10.61
2023-04-13T04:54:45.034Z,10.64
2023-04-13T04:57:14.435Z,10.62
2023-04-13T04:59:42.136Z,10.61
2023-04-13T05:02:10.443Z,10.63
2023-04-13T05:04:38.366Z,10.64
2023-04-13T05:07:06.065Z,10.65
2023-04-13T05:09:37.551Z,10.70
2023-04-13T05:12:05.502Z,10.66
2023-04-13T05:14:33.239Z,10.71
2023-04-13T05:17:02.572Z,10.72
2023-04-13T05:19:30.283Z,10.75
2023-04-13T05:21:58.053Z,10.74
2023-04-13T05:24:26.491Z,10.77
2023-04-13T05:26:56.565Z,10.79
2023-04-13T05:29:24.303Z,10.83
2023-04-13T05:31:52.691Z,10.84
2023-04-13T05:34:21.121Z,10.87
2023-04-13T05:36:50.201Z,10.88
2023-04-13T05:39:18.392Z,10.89
2023-04-13T05:41:46.077Z,10.91
2023-04-13T05:44:15.119Z,10.94
2023-04-13T05:46:43.290Z,10.97
2023-04-13T05:49:11.084Z,11.00
2023-04-13T05:51:39.253Z,11.02
2023-04-13T05:54:10.200Z,11.06
2023-04-13T05:56:37.915Z,11.10
2023-04-13T05:59:05.596Z,11.12
2023-04-13T06:01:35.611Z,11.12
2023-04-13T06:04:03.704Z,11.17
2023-04-13T06:06:31.803Z,11.19
2023-04-13T06:09:00.363Z,11.19
2023-04-13T06:11:28.362Z,11.22
2023-04-13T06:13:57.522Z,11.22
2023-04-13T06:16:27.024Z,11.22
2023-04-13T06:18:56.199Z,11.27
2023-04-13T06:21:23.951Z,11.29
2023-04-13T06:23:52.206Z,11.32
2023-04-13T06:26:21.134Z,11.32
2023-04-13T06:28:48.871Z,11.37
2023-04-13T06:31:17.158Z,11.38
2023-04-13T06:33:44.856Z,11.43
2023-04-13T06:36:13.956Z,11.50
2023-04-13T06:38:43.419Z,11.54
2023-04-13T06:41:11.314Z,11.59
2023-04-13T06:43:38.999Z,11.63
2023-04-13T06:46:07.864Z,11.66
2023-04-13T06:48:35.953Z,11.69
2023-04-13T06:51:03.653Z,11.73
2023-04-13T06:53:33.945Z,11.81
2023-04-13T06:56:01.640Z,11.82
2023-04-13T06:58:30.155Z,11.86
2023-04-13T07:00:58.632Z,11.91
2023-04-13T07:03:28.262Z,11.94
2023-04-13T07:05:56.208Z,12.03
2023-04-13T07:08:24.423Z,12.08
2023-04-13T07:10:57.554Z,12.12
2023-04-13T07:13:26.313Z,12.18
2023-04-13T07:15:54.074Z,12.24
2023-04-13T07:18:21.827Z,12.30
2023-04-13T07:20:50.149Z,12.35
2023-04-13T07:23:18.014Z,12.39
2023-04-13T07:25:45.872Z,12.46
2023-04-13T07:28:15.508Z,12.51
2023-04-13T07:30:44.072Z,12.60
2023-04-13T07:33:12.256Z,12.65
2023-04-13T07:35:40.730Z,12.69
2023-04-13T07:38:08.507Z,12.68
2023-04-13T07:40:36.705Z,12.72
2023-04-13T07:43:04.821Z,12.74
2023-04-13T07:45:34.014Z,12.80
2023-04-13T07:48:01.781Z,12.82
2023-04-13T07:50:30.287Z,12.84
2023-04-13T07:52:58.013Z,12.84
2023-04-13T07:55:25.849Z,12.91
2023-04-13T07:57:54.194Z,12.92
2023-04-13T08:00:23.010Z,12.96
2023-04-13T08:02:52.393Z,13.00
2023-04-13T08:05:20.984Z,13.04
2023-04-13T08:07:49.317Z,13.01
2023-04-13T08:10:17.325Z,13.06
2023-04-13T08:12:45.576Z,13.05
2023-04-13T08:15:13.290Z,13.07
2023-04-13T08:17:41.894Z,13.10
2023-04-13T08:20:14.097Z,13.12
2023-04-13T08:22:41.933Z,13.18
2023-04-13T08:25:10.144Z,13.20
2023-04-13T08:27:38.454Z,13.25
2023-04-13T08:30:08.205Z,13.31
2023-04-13T08:32:35.930Z,13.36
2023-04-13T08:35:07.349Z,13.38
2023-04-13T08:37:36.825Z,13.38
2023-04-13T08:40:07.986Z,13.39
2023-04-13T08:42:36.571Z,13.36
2023-04-13T08:45:04.790Z,13.40
2023-04-13T08:47:33.098Z,13.40
2023-04-13T08:50:01.919Z,13.33
2023-04-13T08:52:30.379Z,13.39
2023-04-13T08:55:01.570Z,13.41
2023-04-13T08:57:30.402Z,13.43
2023-04-13T08:59:59.451Z,13.46
2023-04-13T09:02:33.437Z,13.55
2023-04-13T09:05:06.192Z,13.63
2023-04-13T09:07:37.192Z,13.70
2023-04-13T09:10:07.944Z,13.75
2023-04-13T09:12:35.805Z,13.79
2023-04-13T09:15:06.662Z,13.83
2023-04-13T09:17:35.129Z,13.85
2023-04-13T09:20:15.381Z,13.84
2023-04-13T09:22:43.491Z,13.88
2023-04-13T09:25:23.433Z,13.85
2023-04-13T09:27:53.008Z,13.86
2023-04-13T09:30:22.226Z,13.89
2023-04-13T09:33:03.408Z,13.95
2023-04-13T09:35:32.308Z,13.98
2023-04-13T09:38:00.681Z,14.04
2023-04-13T09:40:30.489Z,14.10
2023-04-13T09:43:00.921Z,14.12
2023-04-13T09:45:35.643Z,14.13
2023-04-13T09:48:03.784Z,14.20
2023-04-13T09:50:33.797Z,14.25
2023-04-13T09:53:02.252Z,14.34
2023-04-13T09:55:32.940Z,14.42
2023-04-13T09:58:10.598Z,14.48
2023-04-13T10:00:40.049Z,14.54
2023-04-13T10:03:12.371Z,14.60
2023-04-13T10:05:55.275Z,14.72
2023-04-13T10:08:37.513Z,14.78
2023-04-13T10:11:11.973Z,14.91
2023-04-13T10:13:47.446Z,14.99
2023-04-13T10:16:36.682Z,14.96
2023-04-13T10:19:11.529Z,15.02
2023-04-13T10:21:40.855Z,15.06
2023-04-13T10:24:12.994Z,15.09
2023-04-13T10:26:45.000Z,15.13
2023-04-13T10:29:15.138Z,15.21
2023-04-13T10:31:46.694Z,15.19
2023-04-13T10:34:25.869Z,15.23
2023-04-13T10:36:56.164Z,15.26
2023-04-13T10:39:28.382Z,15.28
2023-04-13T10:42:05.815Z,15.34
2023-04-13T10:44:47.415Z,15.28
2023-04-13T10:47:16.424Z,15.27
2023-04-13T10:49:46.041Z,15.35
2023-04-13T10:52:14.007Z,15.44
2023-04-13T10:54:42.783Z,15.54
2023-04-13T10:57:12.926Z,15.65
2023-04-13T10:59:56.282Z,15.76
2023-04-13T11:02:27.606Z,15.83
2023-04-13T11:04:56.327Z,15.87
2023-04-13T11:07:25.957Z,15.94
2023-04-13T11:12:31.118Z,16.15
2023-04-13T11:14:59.368Z,16.24
2023-04-13T11:17:27.503Z,16.31
2023-04-13T11:19:57.192Z,16.37
2023-04-13T11:22:28.329Z,16.41
2023-04-13T11:25:08.582Z,16.42
2023-04-13T11:27:39.135Z,16.40
2023-04-13T11:30:09.247Z,16.46
2023-04-13T11:32:40.825Z,16.54
2023-04-13T11:35:09.663Z,16.53
2023-04-13T11:37:38.483Z,16.57
2023-04-13T11:40:13.156Z,16.63
2023-04-13T11:42:44.724Z,16.68
2023-04-13T11:45:15.211Z,16.72
2023-04-13T11:47:43.474Z,16.70
2023-04-13T11:50:13.005Z,16.72
2023-04-13T11:52:43.085Z,16.79
2023-04-13T11:55:22.169Z,16.89
2023-04-13T11:57:53.823Z,16.97
2023-04-13T12:00:25.854Z,16.94
2023-04-13T12:05:28.363Z,17.09
2023-04-13T12:07:58.685Z,17.13
2023-04-13T12:10:38.186Z,17.21
2023-04-13T12:16:05.392Z,17.35
2023-04-13T12:18:43.901Z,17.42
2023-04-13T12:21:16.360Z,17.42
2023-04-13T12:23:54.165Z,17.46
2023-04-13T12:28:58.137Z,17.53
2023-04-13T12:31:26.306Z,17.53
2023-04-13T12:33:54.036Z,17.60
2023-04-13T12:36:22.472Z,17.61
2023-04-13T12:38:50.316Z,17.68
2023-04-13T12:41:17.991Z,17.74
2023-04-13T12:43:46.360Z,17.75
2023-04-13T12:46:15.627Z,17.82
2023-04-13T12:48:43.328Z,17.81
2023-04-13T12:51:11.930Z,17.84
2023-04-13T12:53:39.907Z,17.85
2023-04-13T12:56:08.340Z,17.83
2023-04-13T12:58:36.922Z,17.83
2023-04-13T13:01:04.896Z,17.80
2023-04-13T13:03:34.039Z,17.80
2023-04-13T13:06:01.845Z,17.76
2023-04-13T13:08:30.516Z,17.76
2023-04-13T13:10:58.918Z,17.73
2023-04-13T13:13:27.173Z,17.73
2023-04-13T13:15:54.843Z,17.75
2023-04-13T13:18:22.514Z,17.69
2023-04-13T13:20:54.018Z,17.70
2023-04-13T13:23:21.742Z,17.70
2023-04-13T13:26:10.618Z,17.75
2023-04-13T13:28:38.962Z,17.71
2023-04-13T13:31:07.910Z,17.75
2023-04-13T13:33:36.268Z,17.72
2023-04-13T13:36:06.127Z,17.75
2023-04-13T13:38:35.840Z,17.75
2023-04-13T13:41:04.433Z,17.72
2023-04-13T13:43:32.526Z,17.73
2023-04-13T13:46:00.275Z,17.72
2023-04-13T13:48:28.268Z,17.71
2023-04-13T13:50:56.828Z,17.76
2023-04-13T13:53:25.881Z,17.75
2023-04-13T13:55:54.059Z,17.75
2023-04-13T13:58:22.489Z,17.77
2023-04-13T14:00:50.439Z,17.76
2023-04-13T14:03:18.514Z,17.82
2023-04-13T14:05:46.622Z,17.85
2023-04-13T14:08:14.343Z,17.86
2023-04-13T14:10:48.527Z,17.90
2023-04-13T14:13:16.302Z,17.88
2023-04-13T14:15:44.001Z,17.89
2023-04-13T14:18:12.275Z,17.89
2023-04-13T14:20:40.647Z,17.89
2023-04-13T14:23:09.375Z,17.85
2023-04-13T14:25:37.743Z,17.88
2023-04-13T14:28:09.290Z,17.85
2023-04-13T14:30:37.402Z,17.87
2023-04-13T14:33:05.748Z,17.83
2023-04-13T14:35:33.505Z,17.85
2023-04-13T14:38:02.010Z,17.80
2023-04-13T14:40:29.777Z,17.72
2023-04-13T14:42:57.616Z,17.71
2023-04-13T14:45:27.177Z,17.68
2023-04-13T14:47:54.731Z,17.71
2023-04-13T14:50:22.929Z,17.69
2023-04-13T14:52:51.347Z,17.60
2023-04-13T14:55:19.262Z,17.58
2023-04-13T14:57:47.059Z,17.54
2023-04-13T15:00:21.686Z,17.48
2023-04-13T15:02:52.419Z,17.47
2023-04-13T15:05:20.618Z,17.43
2023-04-13T15:07:49.008Z,17.40
2023-04-13T15:10:17.655Z,17.36
2023-04-13T15:12:45.436Z,17.32
2023-04-13T15:15:13.764Z,17.31
2023-04-13T15:17:41.484Z,17.27
2023-04-13T15:20:12.039Z,17.25
2023-04-13T15:22:40.459Z,17.16
2023-04-13T15:25:08.703Z,17.15
2023-04-13T15:27:36.501Z,17.12
2023-04-13T15:30:04.918Z,17.09
2023-04-13T15:32:34.796Z,17.08
2023-04-13T15:35:02.770Z,17.05
2023-04-13T15:37:32.650Z,17.04
2023-04-13T15:40:01.433Z,16.99
2023-04-13T15:42:29.697Z,16.94
2023-04-13T15:44:58.259Z,16.88
2023-04-13T15:47:26.004Z,16.77
2023-04-13T15:49:54.246Z,16.71
2023-04-13T15:52:23.088Z,16.66
2023-04-13T15:54:52.460Z,16.64
2023-04-13T15:57:20.781Z,16.58
2023-04-13T16:02:38.169Z,16.43
2023-04-13T16:05:08.464Z,16.34
2023-04-13T16:07:36.850Z,16.26
2023-04-13T16:10:07.832Z,16.24
2023-04-13T16:12:40.132Z,16.19
2023-04-13T16:15:09.211Z,16.14
2023-04-13T16:17:40.872Z,16.11
2023-04-13T16:20:19.681Z,16.02
2023-04-13T16:22:50.003Z,15.94
2023-04-13T16:25:20.392Z,15.84
2023-04-13T16:27:49.295Z,15.79
2023-04-13T16:30:21.321Z,15.73
2023-04-13T16:32:50.928Z,15.66
2023-04-13T16:35:19.276Z,15.64
2023-04-13T16:37:47.883Z,15.61
2023-04-13T16:40:16.897Z,15.60
2023-04-13T16:42:46.812Z,15.59
2023-04-13T16:45:15.595Z,15.59
2023-04-13T16:47:43.899Z,15.53
2023-04-13T16:50:13.326Z,15.53
2023-04-13T16:52:41.999Z,15.49
2023-04-13T16:55:15.053Z,15.46
2023-04-13T16:57:44.505Z,15.40
2023-04-13T17:00:15.635Z,15.39
2023-04-13T17:02:44.425Z,15.36
2023-04-13T17:05:13.614Z,15.36
2023-04-13T17:07:42.649Z,15.34
2023-04-13T17:10:13.069Z,15.36
2023-04-13T17:12:41.565Z,15.37
2023-04-13T17:15:10.751Z,15.36
2023-04-13T17:17:40.722Z,15.39
2023-04-13T17:20:10.146Z,15.39
2023-04-13T17:22:38.563Z,15.39
2023-04-13T17:25:07.934Z,15.38
2023-04-13T17:27:36.023Z,15.38
2023-04-13T17:30:04.288Z,15.37
2023-04-13T17:32:32.830Z,15.37
2023-04-13T17:35:02.233Z,15.35
2023-04-13T17:37:30.528Z,15.34
2023-04-13T17:39:59.086Z,15.32
2023-04-13T17:42:28.351Z,15.30
2023-04-13T17:44:56.499Z,15.28
2023-04-13T17:47:26.176Z,15.27
2023-04-13T17:49:54.074Z,15.28
2023-04-13T17:52:23.431Z,15.24
2023-04-13T17:54:52.082Z,15.19
2023-04-13T17:57:20.063Z,15.13
2023-04-13T17:59:47.946Z,15.08
2023-04-13T18:02:16.530Z,15.03
2023-04-13T18:04:44.580Z,15.01
2023-04-13T18:07:12.466Z,14.96
2023-04-13T18:09:42.329Z,14.92
2023-04-13T18:12:10.229Z,14.81
2023-04-13T18:14:38.114Z,14.85
2023-04-13T18:17:07.414Z,14.82
2023-04-13T18:19:35.376Z,14.82
2023-04-13T18:22:03.494Z,14.80
2023-04-13T18:24:32.140Z,14.76
2023-04-13T18:27:01.428Z,14.73
2023-04-13T18:29:29.459Z,14.69
2023-04-13T18:31:58.200Z,14.64
2023-04-13T18:34:26.490Z,14.62
2023-04-13T18:36:54.514Z,14.58
2023-04-13T18:39:23.137Z,14.55
2023-04-13T18:41:51.277Z,14.54
2023-04-13T18:44:20.641Z,14.53
2023-04-13T18:46:49.392Z,14.49
2023-04-13T18:49:17.478Z,14.48
2023-04-13T18:51:45.543Z,14.46
2023-04-13T18:54:14.108Z,14.45
2023-04-13T18:56:42.205Z,14.47
2023-04-13T18:59:10.676Z,14.46
2023-04-13T19:01:40.868Z,14.45
2023-04-13T19:04:09.043Z,14.46
2023-04-13T19:06:38.656Z,14.47
2023-04-13T19:09:07.151Z,14.46
2023-04-13T19:11:47.574Z,14.46
2023-04-13T19:14:16.378Z,14.44
2023-04-13T19:16:48.150Z,14.43
2023-04-13T19:19:17.177Z,14.38
2023-04-13T19:21:45.740Z,14.35
2023-04-13T19:24:14.377Z,14.33
2023-04-13T19:26:43.087Z,14.32
2023-04-13T19:29:13.106Z,14.29
2023-04-13T19:31:44.354Z,14.27
2023-04-13T19:34:14.327Z,14.25
2023-04-13T19:36:42.841Z,14.20
2023-04-13T19:39:11.467Z,14.18
2023-04-13T19:41:41.169Z,14.16
2023-04-13T19:44:09.814Z,14.12
2023-04-13T19:46:39.175Z,14.10
2023-04-13T19:49:07.952Z,14.09
2023-04-13T19:51:37.427Z,14.07
2023-04-13T19:54:06.661Z,14.04
2023-04-13T19:56:35.826Z,14.02
2023-04-13T19:59:05.599Z,14.01
2023-04-13T20:01:35.252Z,13.99
2023-04-13T20:04:05.007Z,14.04
2023-04-13T20:06:34.439Z,14.01
2023-04-13T20:09:12.344Z,13.98
2023-04-13T20:11:41.263Z,13.91
2023-04-13T20:14:09.937Z,13.87
2023-04-13T20:16:39.237Z,13.82
2023-04-13T20:19:09.300Z,13.76
2023-04-13T20:21:38.052Z,13.74
2023-04-13T20:24:06.710Z,13.69
2023-04-13T20:26:36.201Z,13.65
2023-04-13T20:29:05.462Z,13.61
2023-04-13T20:31:34.887Z,13.57
2023-04-13T20:34:04.154Z,13.53
2023-04-13T20:36:32.658Z,13.52
2023-04-13T20:39:01.376Z,13.48
2023-04-13T20:41:32.248Z,13.46
2023-04-13T20:44:02.798Z,13.45
2023-04-13T20:46:35.738Z,13.42
2023-04-13T20:49:05.637Z,13.37
2023-04-13T20:51:34.232Z,13.35
2023-04-13T20:54:05.708Z,13.32
2023-04-13T20:56:34.365Z,13.29
2023-04-13T20:59:04.633Z,13.27
2023-04-13T21:01:33.309Z,13.24
2023-04-13T21:04:01.573Z,13.18
2023-04-13T21:06:30.267Z,13.18
2023-04-13T21:08:59.318Z,13.14
2023-04-13T21:11:27.500Z,13.13
2023-04-13T21:13:55.989Z,13.10
2023-04-13T21:16:27.078Z,13.10
2023-04-13T21:18:56.033Z,13.06
2023-04-13T21:21:25.069Z,13.01
2023-04-13T21:23:54.870Z,12.98
2023-04-13T21:26:22.590Z,13.02
2023-04-13T21:28:50.956Z,13.01
2023-04-13T21:31:19.533Z,12.94
2023-04-13T21:33:49.622Z,12.93
2023-04-13T21:38:49.580Z,12.88
2023-04-13T21:41:18.398Z,12.85
2023-04-13T21:43:47.155Z,12.84
2023-04-13T21:46:16.956Z,12.84
2023-04-13T21:48:45.073Z,12.80
2023-04-13T21:51:14.518Z,12.82
2023-04-13T21:53:43.022Z,12.82
2023-04-13T21:56:10.715Z,12.83
2023-04-13T21:58:40.438Z,12.81
2023-04-13T22:01:08.835Z,12.86
2023-04-13T22:03:37.954Z,12.84
2023-04-13T22:06:07.466Z,12.78
2023-04-13T22:08:37.707Z,12.82
2023-04-13T22:11:06.474Z,12.80
2023-04-13T22:13:34.674Z,12.78
2023-04-13T22:16:02.622Z,12.75
2023-04-13T22:18:30.590Z,12.72
2023-04-13T22:20:59.990Z,12.73
2023-04-13T22:23:28.628Z,12.68
2023-04-13T22:26:01.464Z,12.63
2023-04-13T22:28:30.937Z,12.57
2023-04-13T22:30:59.467Z,12.55
2023-04-13T22:33:32.260Z,12.52
2023-04-13T22:36:00.327Z,12.51
2023-04-13T22:38:28.380Z,12.48
2023-04-13T22:40:58.926Z,12.47
2023-04-13T22:43:26.998Z,12.44
2023-04-13T22:45:59.392Z,12.44
2023-04-13T22:48:29.607Z,12.42
2023-04-13T22:50:57.912Z,12.40
2023-04-13T22:53:26.684Z,12.38
2023-04-13T22:55:54.844Z,12.37
2023-04-13T22:58:24.323Z,12.35
2023-04-13T23:00:53.143Z,12.31
2023-04-13T23:03:21.465Z,12.29
2023-04-13T23:05:49.859Z,12.29
2023-04-13T23:08:18.440Z,12.27
2023-04-13T23:10:46.626Z,12.26
2023-04-13T23:13:14.512Z,12.24
2023-04-13T23:15:44.183Z,12.23
2023-04-13T23:18:11.921Z,12.27
2023-04-13T23:20:39.926Z,12.25
2023-04-13T23:23:08.426Z,12.21
2023-04-13T23:25:36.431Z,12.19
2023-04-13T23:28:04.567Z,12.17
2023-04-13T23:30:33.136Z,12.15
2023-04-13T23:33:02.770Z,12.13
2023-04-13T23:35:30.488Z,12.16
2023-04-13T23:37:58.983Z,12.12
2023-04-13T23:40:27.133Z,12.09
2023-04-13T23:42:55.050Z,12.06
2023-04-13T23:45:23.593Z,12.00
2023-04-13T23:47:51.742Z,11.96
2023-04-13T23:50:21.573Z,11.95
2023-04-13T23:52:50.195Z,11.90
2023-04-13T23:55:18.145Z,11.87
2023-04-13T23:57:46.749Z,11.84
